Time;durP1;ratioP1;P1;durP2;ratioP2;P2;SDS_P1;SDS_P2;PMS_P1;PMS_P2;Temp;Humidity;BMP_temperature;BMP_pressure;BME280_temperature;BME280_humidity;BME280_pressure;Samples;Min_cycle;Max_cycle;Signal;HPM_P1;HPM_P2
2022/04/17 00:01:55;;;;;;;8.60;7.10;;;6.50;68.70;;;;;;5101064;27;20080;-80
2022/04/17 00:04:21;;;;;;;10.35;7.68;;;6.50;68.80;;;;;;5117650;27;20035;-80
2022/04/17 00:06:47;;;;;;;11.70;9.10;;;6.40;69.30;;;;;;5117656;27;20121;-80
2022/04/17 00:09:12;;;;;;;12.05;9.50;;;6.40;69.30;;;;;;5117512;27;20046;-80
2022/04/17 00:11:38;;;;;;;11.60;9.30;;;6.30;69.40;;;;;;5117842;27;20043;-80
2022/04/17 00:14:04;;;;;;;11.98;8.82;;;6.30;69.60;;;;;;5100603;27;20042;-79
2022/04/17 00:16:30;;;;;;;13.63;9.23;;;6.30;69.50;;;;;;5117329;27;20035;-80
2022/04/17 00:18:55;;;;;;;15.23;8.98;;;6.20;69.70;;;;;;5113876;28;20052;-80
2022/04/17 00:21:22;;;;;;;11.68;9.25;;;6.20;69.90;;;;;;5079987;28;20051;-80
2022/04/17 00:23:49;;;;;;;12.27;9.52;;;6.10;69.80;;;;;;5113845;28;20503;-80
2022/04/17 00:26:15;;;;;;;10.40;8.10;;;6.10;69.90;;;;;;5080432;28;20104;-80
2022/04/17 00:28:40;;;;;;;12.13;7.78;;;6.10;70.10;;;;;;5080050;28;20487;-81
2022/04/17 00:31:06;;;;;;;11.25;7.80;;;6.10;70.00;;;;;;5079822;28;20040;-80
2022/04/17 00:33:32;;;;;;;11.10;7.55;;;6.10;70.10;;;;;;5079931;28;20035;-80
2022/04/17 00:35:58;;;;;;;8.32;6.45;;;6.10;70.40;;;;;;5079932;28;20054;-80
2022/04/17 00:38:24;;;;;;;11.38;6.50;;;6.10;70.50;;;;;;5113527;28;20479;-80
2022/04/17 00:40:50;;;;;;;8.15;6.43;;;6.00;70.70;;;;;;5096498;28;20050;-79
2022/04/17 00:43:33;;;;;;;11.35;6.57;;;6.00;70.80;;;;;;5096579;28;20031;-80
2022/04/17 00:45:59;;;;;;;7.50;6.43;;;6.00;70.80;;;;;;5097852;28;20054;-81
2022/04/17 00:48:25;;;;;;;9.57;6.32;;;5.90;70.90;;;;;;5113414;28;20039;-80
2022/04/17 00:50:55;;;;;;;6.53;5.75;;;5.90;71.10;;;;;;5113268;28;20051;-79
2022/04/17 00:53:22;;;;;;;9.70;6.50;;;5.90;70.80;;;;;;5113265;28;20040;-80
2022/04/17 00:55:49;;;;;;;7.53;5.72;;;5.80;71.20;;;;;;5113305;28;20092;-81
2022/04/17 00:58:15;;;;;;;10.55;6.28;;;5.80;72.00;;;;;;5096277;28;20092;-80
2022/04/17 01:00:42;;;;;;;8.43;5.93;;;5.80;72.70;;;;;;5096411;28;20388;-79
2022/04/17 01:03:10;;;;;;;9.40;5.80;;;5.70;72.90;;;;;;5096141;28;20085;-80
2022/04/17 01:05:39;;;;;;;8.60;5.88;;;5.70;72.40;;;;;;5063307;28;20514;-80
2022/04/17 01:08:10;;;;;;;8.07;5.72;;;5.60;72.00;;;;;;5113362;28;20130;-80
2022/04/17 01:10:36;;;;;;;7.45;6.07;;;5.60;71.90;;;;;;5112371;28;20047;-80
2022/04/17 01:13:08;;;;;;;10.55;6.75;;;5.60;71.80;;;;;;5096011;28;20039;-80
2022/04/17 01:15:36;;;;;;;8.73;6.25;;;5.50;71.70;;;;;;5095932;28;20504;-79
2022/04/17 01:18:02;;;;;;;8.50;6.07;;;5.50;71.70;;;;;;5112652;28;20052;-79
2022/04/17 01:20:28;;;;;;;6.35;5.57;;;5.40;71.70;;;;;;5095811;28;20036;-79
2022/04/17 01:28:26;;;;;;;7.75;6.35;;;5.50;71.80;;;;;;5112604;28;20051;-80
2022/04/17 01:30:56;;;;;;;8.80;5.88;;;5.50;71.70;;;;;;5112665;28;20049;-79
2022/04/17 01:33:23;;;;;;;8.30;6.13;;;5.40;71.90;;;;;;5095861;28;20065;-80
2022/04/17 01:35:49;;;;;;;7.25;5.93;;;5.50;72.20;;;;;;5112686;28;20043;-80
2022/04/17 01:38:15;;;;;;;8.68;5.82;;;5.50;72.50;;;;;;5095601;28;20526;-80
2022/04/17 01:40:41;;;;;;;11.35;6.75;;;5.50;72.10;;;;;;5095536;28;20044;-80
2022/04/17 01:43:13;;;;;;;7.47;6.53;;;5.50;72.20;;;;;;5095861;28;20032;-81
2022/04/17 01:45:39;;;;;;;8.75;6.10;;;5.50;72.10;;;;;;5061939;28;20491;-81
2022/04/17 01:48:05;;;;;;;8.55;5.18;;;5.40;72.10;;;;;;5095685;28;20046;-80
2022/04/17 01:50:31;;;;;;;7.47;5.97;;;5.40;72.20;;;;;;5095561;28;20040;-81
2022/04/17 01:52:59;;;;;;;6.63;5.63;;;5.30;72.20;;;;;;5112535;28;20441;-80
2022/04/17 01:55:25;;;;;;;9.07;5.97;;;5.30;72.10;;;;;;5112089;28;20039;-80
2022/04/17 01:57:51;;;;;;;6.63;5.35;;;5.30;72.40;;;;;;5078673;28;20040;-81
2022/04/17 02:00:20;;;;;;;7.53;5.40;;;5.30;72.20;;;;;;5078521;28;20046;-81
2022/04/17 02:02:45;;;;;;;7.88;5.95;;;5.20;72.00;;;;;;5112245;28;20043;-80
2022/04/17 02:05:11;;;;;;;10.10;6.13;;;5.30;71.90;;;;;;5112234;28;20407;-80
2022/04/17 02:07:37;;;;;;;9.57;5.70;;;5.10;72.00;;;;;;5112167;28;20400;-79
2022/04/17 02:10:04;;;;;;;7.18;5.82;;;5.10;71.60;;;;;;5095108;28;20399;-80
2022/04/17 02:12:30;;;;;;;9.68;6.22;;;5.10;72.00;;;;;;5078408;28;20487;-80
2022/04/17 02:14:56;;;;;;;6.75;5.30;;;5.00;72.30;;;;;;5095317;28;20039;-80
2022/04/17 02:17:21;;;;;;;6.15;5.45;;;4.90;72.90;;;;;;5115315;28;20059;-79
2022/04/17 02:19:47;;;;;;;8.10;6.10;;;4.90;72.90;;;;;;5098433;28;20047;-81
2022/04/17 02:22:13;;;;;;;6.65;5.75;;;4.90;73.10;;;;;;5098921;27;20066;-80
2022/04/17 02:24:39;;;;;;;7.03;5.55;;;4.80;73.10;;;;;;5102630;27;20062;-80
2022/04/17 02:27:04;;;;;;;7.57;6.72;;;4.80;73.10;;;;;;5102738;27;20039;-80
2022/04/17 02:29:32;;;;;;;11.07;5.63;;;4.70;73.30;;;;;;5119714;27;20035;-80
2022/04/17 02:31:58;;;;;;;7.30;5.50;;;4.70;73.30;;;;;;5069899;27;20061;-80
2022/04/17 02:34:24;;;;;;;12.45;5.95;;;4.70;73.10;;;;;;5102810;27;20035;-81
2022/04/17 02:36:49;;;;;;;8.65;5.95;;;4.60;73.10;;;;;;5119206;27;20521;-80
2022/04/17 02:39:15;;;;;;;10.75;5.65;;;4.60;73.30;;;;;;5085287;27;20110;-80
2022/04/17 02:41:41;;;;;;;7.95;5.75;;;4.60;73.50;;;;;;5102578;27;20118;-80
2022/04/17 02:44:06;;;;;;;8.75;5.60;;;4.60;73.60;;;;;;5085496;27;20448;-81
2022/04/17 02:49:16;;;;;;;9.48;6.45;;;4.60;74.00;;;;;;5119116;27;20053;-80
2022/04/17 02:51:42;;;;;;;7.88;5.95;;;4.60;74.20;;;;;;5102471;27;20043;-80
2022/04/17 02:54:08;;;;;;;8.25;6.07;;;4.60;74.30;;;;;;5068787;27;20088;-80
2022/04/17 02:56:33;;;;;;;8.32;5.85;;;4.60;74.40;;;;;;5085171;27;20055;-81
2022/04/17 02:58:59;;;;;;;8.32;6.15;;;4.50;74.30;;;;;;5119208;27;20083;-81
2022/04/17 03:06:54;;;;;;;8.05;6.22;;;4.60;74.60;;;;;;5118821;27;20061;-79
2022/04/17 03:09:20;;;;;;;6.95;5.85;;;4.60;74.40;;;;;;5085137;27;20125;-80
2022/04/17 03:11:45;;;;;;;9.55;6.72;;;4.60;74.60;;;;;;5118800;27;20039;-80
2022/04/17 03:14:11;;;;;;;7.65;5.75;;;4.60;74.60;;;;;;5118807;27;20125;-80
2022/04/17 03:16:36;;;;;;;7.40;6.03;;;4.60;74.40;;;;;;5084703;27;20430;-80
2022/04/17 03:19:02;;;;;;;9.93;7.13;;;4.60;74.40;;;;;;5101481;27;20403;-80
2022/04/17 03:21:29;;;;;;;7.03;6.07;;;4.60;74.30;;;;;;5118565;27;20046;-80
2022/04/17 03:23:54;;;;;;;6.40;5.65;;;4.60;74.60;;;;;;5118648;27;20050;-81
2022/04/17 03:26:20;;;;;;;9.75;6.20;;;4.70;74.70;;;;;;5101877;27;20042;-80
2022/04/17 03:28:46;;;;;;;8.60;6.40;;;4.60;74.60;;;;;;5084820;27;20401;-80
2022/04/17 03:31:11;;;;;;;8.02;6.03;;;4.60;74.60;;;;;;5101437;27;20048;-80
2022/04/17 03:33:37;;;;;;;9.38;6.80;;;4.60;74.50;;;;;;5100801;27;20127;-81
2022/04/17 03:36:03;;;;;;;8.63;6.63;;;4.60;74.40;;;;;;5084391;27;20066;-80
2022/04/17 03:38:29;;;;;;;9.60;7.00;;;4.60;74.50;;;;;;5101579;27;20521;-80
2022/04/17 03:40:54;;;;;;;9.07;6.13;;;4.60;74.50;;;;;;5101163;27;20046;-81
2022/04/17 03:43:23;;;;;;;9.90;6.85;;;4.60;74.60;;;;;;5084408;27;20037;-80
2022/04/17 03:45:49;;;;;;;8.77;7.35;;;4.60;74.60;;;;;;5101498;27;20554;-80
2022/04/17 03:48:17;;;;;;;8.50;7.18;;;4.60;74.70;;;;;;5118065;27;20043;-80
2022/04/17 03:50:47;;;;;;;10.13;7.30;;;4.70;74.40;;;;;;5101225;27;20046;-80
2022/04/17 03:53:13;;;;;;;10.60;7.53;;;4.60;74.30;;;;;;5117984;27;20125;-80
2022/04/17 03:55:39;;;;;;;9.68;7.40;;;4.60;74.40;;;;;;5117855;27;20126;-80
2022/04/17 03:58:05;;;;;;;8.30;7.13;;;4.60;74.40;;;;;;5117896;27;20031;-80
2022/04/17 04:00:31;;;;;;;8.77;6.90;;;4.60;74.50;;;;;;5100719;27;20087;-80
2022/04/17 04:02:56;;;;;;;10.55;7.40;;;4.60;74.60;;;;;;5117790;27;20179;-80
2022/04/17 04:05:22;;;;;;;8.70;7.00;;;4.60;74.80;;;;;;5084235;27;20054;-80
2022/04/17 04:07:48;;;;;;;8.70;7.10;;;4.60;74.80;;;;;;5083858;27;20550;-80
2022/04/17 04:10:14;;;;;;;9.05;7.40;;;4.60;74.80;;;;;;5100625;27;20043;-80
2022/04/17 04:12:39;;;;;;;10.80;7.70;;;4.60;74.90;;;;;;5117827;27;20038;-80
2022/04/17 04:15:06;;;;;;;9.00;6.97;;;4.60;74.90;;;;;;5117386;27;20401;-80
2022/04/17 04:17:33;;;;;;;9.77;8.32;;;4.60;74.80;;;;;;5100698;27;20051;-80
2022/04/17 04:19:59;;;;;;;9.63;8.05;;;4.60;74.90;;;;;;5117383;27;20082;-80
2022/04/17 04:22:25;;;;;;;10.30;7.82;;;4.60;74.80;;;;;;5117655;27;20147;-80
2022/04/17 04:24:51;;;;;;;8.75;7.55;;;4.60;75.00;;;;;;5100382;27;20371;-80
2022/04/17 04:30:02;;;;;;;9.43;7.97;;;4.60;74.90;;;;;;5102611;27;20039;-79
2022/04/17 04:32:28;;;;;;;10.00;7.53;;;4.60;74.90;;;;;;5082913;27;20084;-81
2022/04/17 04:35:01;;;;;;;11.13;7.57;;;4.50;74.80;;;;;;5100028;27;20043;-80
2022/04/17 04:37:27;;;;;;;9.15;7.50;;;4.50;75.00;;;;;;5117179;27;20042;-81
2022/04/17 04:39:53;;;;;;;9.48;7.35;;;4.50;75.50;;;;;;5117336;27;20114;-80
2022/04/17 04:42:22;;;;;;;9.02;7.22;;;4.40;75.20;;;;;;5083233;27;20550;-79
2022/04/17 04:46:06;;;;;;;9.35;7.85;;;4.30;75.50;;;;;;5082540;28;20027;-79
2022/04/17 04:47:34;;;;;;;10.02;7.05;;;4.30;75.40;;;;;;5102981;27;20197;-80
2022/04/17 04:50:01;;;;;;;10.27;8.30;;;4.30;75.50;;;;;;5117089;27;20072;-80
2022/04/17 04:52:26;;;;;;;12.75;8.55;;;4.30;75.70;;;;;;5117148;27;20043;-81
2022/04/17 04:54:52;;;;;;;9.77;8.50;;;4.30;76.00;;;;;;5116915;27;20103;-80
2022/04/17 04:57:18;;;;;;;9.90;7.45;;;4.40;75.80;;;;;;5116654;27;20447;-80
2022/04/17 04:59:43;;;;;;;10.00;8.32;;;4.40;76.00;;;;;;5116711;27;20035;-80
2022/04/17 05:02:10;;;;;;;10.38;8.27;;;4.50;75.70;;;;;;5116617;27;20041;-80
2022/04/17 05:04:35;;;;;;;11.75;8.25;;;4.50;75.90;;;;;;5100069;27;20390;-79
2022/04/17 05:07:01;;;;;;;10.68;7.90;;;4.50;75.80;;;;;;5082966;27;20039;-80
2022/04/17 05:09:28;;;;;;;11.05;8.48;;;4.50;75.90;;;;;;5099476;27;20035;-80
2022/04/17 05:11:53;;;;;;;10.00;8.05;;;4.50;75.60;;;;;;5099461;27;20035;-80
2022/04/17 05:14:22;;;;;;;13.43;8.30;;;4.50;75.70;;;;;;5099523;27;20031;-80
2022/04/17 05:16:48;;;;;;;11.30;8.82;;;4.50;75.90;;;;;;5116213;27;20099;-79
2022/04/17 05:19:20;;;;;;;12.98;8.30;;;4.60;75.40;;;;;;5082275;27;20524;-80
2022/04/17 05:21:47;;;;;;;12.23;8.43;;;4.60;75.90;;;;;;5099601;27;20130;-81
2022/04/17 05:24:15;;;;;;;13.07;8.30;;;4.60;75.80;;;;;;5116208;27;20394;-81
2022/04/17 05:26:40;;;;;;;10.68;8.63;;;4.60;75.90;;;;;;5116240;27;20039;-80
2022/04/17 05:29:06;;;;;;;11.15;7.50;;;4.60;76.30;;;;;;5116064;27;20046;-80
2022/04/17 05:31:32;;;;;;;9.65;8.00;;;4.70;76.20;;;;;;5116382;27;20382;-80
2022/04/17 05:33:58;;;;;;;9.82;7.70;;;4.70;76.70;;;;;;5116334;27;20046;-80
2022/04/17 05:36:24;;;;;;;11.98;8.52;;;4.80;76.30;;;;;;5115921;27;20586;-80
2022/04/17 05:38:53;;;;;;;11.20;8.45;;;4.90;76.30;;;;;;5115959;27;20035;-81
2022/04/17 05:41:20;;;;;;;10.18;8.55;;;5.00;76.30;;;;;;5082868;27;20045;-80
2022/04/17 05:43:47;;;;;;;10.23;8.05;;;5.00;76.10;;;;;;5098956;27;20035;-80
2022/04/17 05:46:13;;;;;;;10.10;8.30;;;5.10;75.90;;;;;;5099001;27;20042;-80
2022/04/17 05:48:38;;;;;;;10.80;8.75;;;5.10;76.00;;;;;;5098736;27;20054;-80
2022/04/17 05:51:04;;;;;;;11.13;8.43;;;5.30;75.80;;;;;;5098823;28;20458;-80
2022/04/17 05:53:30;;;;;;;10.15;8.93;;;5.40;75.90;;;;;;5116060;27;20038;-79
2022/04/17 05:55:57;;;;;;;10.95;7.68;;;5.50;75.80;;;;;;5098577;27;20505;-79
2022/04/17 05:58:22;;;;;;;10.45;8.05;;;5.50;75.50;;;;;;5081779;27;20039;-79
2022/04/17 06:00:48;;;;;;;13.02;8.73;;;5.60;75.80;;;;;;5115648;27;20039;-79
2022/04/17 06:03:15;;;;;;;10.93;8.55;;;5.70;76.00;;;;;;5115667;27;20039;-80
2022/04/17 06:05:41;;;;;;;13.07;9.75;;;5.80;75.40;;;;;;5115498;27;20054;-79
2022/04/17 06:08:08;;;;;;;10.65;8.85;;;5.90;75.90;;;;;;5098676;27;20282;-79
2022/04/17 06:10:33;;;;;;;12.40;9.10;;;6.00;75.20;;;;;;5115483;28;20175;-79
2022/04/17 06:12:59;;;;;;;12.43;8.95;;;6.10;75.30;;;;;;5115474;28;20129;-79
2022/04/17 06:15:25;;;;;;;10.55;8.25;;;6.20;75.80;;;;;;5098635;28;20040;-79
2022/04/17 06:17:50;;;;;;;12.20;8.38;;;6.30;75.30;;;;;;5081124;28;20192;-79
2022/04/17 06:20:16;;;;;;;12.07;8.32;;;6.40;74.40;;;;;;5098384;28;20051;-79
2022/04/17 06:22:42;;;;;;;12.90;8.70;;;6.50;73.70;;;;;;5115673;28;20039;-79
2022/04/17 06:25:14;;;;;;;11.23;8.45;;;6.60;73.70;;;;;;5098782;28;20047;-79
2022/04/17 06:27:47;;;;;;;11.32;8.73;;;6.80;73.00;;;;;;5115571;28;20399;-79
2022/04/17 06:30:15;;;;;;;8.60;7.18;;;6.80;71.20;;;;;;5098292;28;20050;-80
2022/04/17 06:32:42;;;;;;;11.93;8.27;;;7.00;71.60;;;;;;5115362;28;20078;-79
2022/04/17 06:35:13;;;;;;;9.73;7.95;;;7.00;70.30;;;;;;5115268;28;20088;-80
2022/04/17 06:37:49;;;;;;;11.10;8.45;;;7.10;69.90;;;;;;5115549;28;20047;-79
2022/04/17 06:40:20;;;;;;;12.05;8.38;;;7.10;69.90;;;;;;5115258;28;20070;-79
2022/04/17 06:42:46;;;;;;;10.82;8.75;;;7.30;70.40;;;;;;5098432;28;20378;-79
2022/04/17 06:45:13;;;;;;;10.18;7.63;;;7.30;69.70;;;;;;5081454;28;20065;-79
2022/04/17 06:47:38;;;;;;;12.32;8.77;;;7.40;70.00;;;;;;5115419;28;20046;-80
2022/04/17 06:50:05;;;;;;;9.75;8.68;;;7.50;69.40;;;;;;5115058;28;20402;-80
2022/04/17 06:52:31;;;;;;;11.20;9.18;;;7.50;69.40;;;;;;5098489;28;20039;-80
2022/04/17 06:54:57;;;;;;;11.52;8.20;;;7.60;69.50;;;;;;5115208;28;20100;-79
2022/04/17 06:57:30;;;;;;;13.73;9.00;;;7.70;68.80;;;;;;5098500;28;20035;-80
2022/04/17 06:59:56;;;;;;;12.05;7.82;;;7.80;69.00;;;;;;5098270;28;20031;-80
2022/04/17 07:02:22;;;;;;;11.18;8.07;;;7.80;68.80;;;;;;5115128;28;20122;-80
2022/04/17 07:04:47;;;;;;;11.13;8.82;;;8.00;67.30;;;;;;5098478;28;20027;-80
2022/04/17 07:07:13;;;;;;;10.05;8.10;;;8.00;67.90;;;;;;5098131;28;20103;-80
2022/04/17 07:09:39;;;;;;;11.10;7.97;;;8.10;67.30;;;;;;5117618;27;20043;-80
2022/04/17 07:12:04;;;;;;;9.45;7.60;;;8.10;67.10;;;;;;5101823;27;20059;-80
2022/04/17 07:14:30;;;;;;;12.85;8.50;;;8.20;66.90;;;;;;5101730;27;20398;-80
2022/04/17 07:16:56;;;;;;;9.82;8.38;;;8.20;67.20;;;;;;5101716;27;20447;-80
2022/04/17 07:19:22;;;;;;;11.35;8.32;;;8.30;67.30;;;;;;5101536;27;20047;-80
2022/04/17 07:21:47;;;;;;;11.15;8.73;;;8.40;67.60;;;;;;5118533;27;20093;-80
2022/04/17 07:24:14;;;;;;;11.45;9.23;;;8.50;67.80;;;;;;5101484;27;20043;-80
2022/04/17 07:26:40;;;;;;;13.48;8.82;;;8.60;67.10;;;;;;5102065;27;20047;-80
2022/04/17 07:29:06;;;;;;;10.15;7.93;;;8.70;67.20;;;;;;5118299;27;20039;-81
2022/04/17 07:31:31;;;;;;;11.38;7.63;;;8.80;65.40;;;;;;5101498;27;20091;-80
2022/04/17 07:33:58;;;;;;;11.75;8.50;;;8.90;66.40;;;;;;5084722;27;20258;-80
2022/04/17 07:36:24;;;;;;;12.50;8.15;;;9.00;65.40;;;;;;5101220;27;20043;-80
2022/04/17 07:38:50;;;;;;;13.15;8.25;;;9.00;66.10;;;;;;5118285;27;20039;-80
2022/04/17 07:41:16;;;;;;;14.38;8.02;;;9.10;65.70;;;;;;5118136;27;20042;-80
2022/04/17 07:43:41;;;;;;;11.55;7.75;;;9.20;62.70;;;;;;5118160;27;20035;-81
2022/04/17 07:46:07;;;;;;;11.32;7.82;;;9.40;64.40;;;;;;5084317;27;20099;-80
2022/04/17 07:48:32;;;;;;;9.73;7.28;;;9.50;63.40;;;;;;5101393;27;20099;-80
2022/04/17 07:50:58;;;;;;;10.70;7.75;;;9.60;63.10;;;;;;5084133;27;20039;-80
2022/04/17 07:53:24;;;;;;;10.70;8.15;;;9.70;61.60;;;;;;5084147;27;20039;-80
2022/04/17 07:55:50;;;;;;;10.65;7.35;;;9.70;61.50;;;;;;5100915;27;20129;-80
2022/04/17 07:58:24;;;;;;;12.20;7.93;;;9.90;60.90;;;;;;5118133;27;20035;-80
2022/04/17 08:00:59;;;;;;;11.38;7.63;;;10.00;60.10;;;;;;5117878;27;20039;-80
2022/04/17 08:06:10;;;;;;;10.82;7.90;;;10.10;59.40;;;;;;5117824;27;20039;-80
2022/04/17 08:08:39;;;;;;;10.05;7.68;;;10.20;57.70;;;;;;5100888;27;20046;-79
2022/04/17 08:11:05;;;;;;;10.10;7.28;;;10.30;58.80;;;;;;5117843;27;20099;-80
2022/04/17 08:13:32;;;;;;;9.13;6.10;;;10.40;58.00;;;;;;5117474;27;20121;-81
2022/04/17 08:15:59;;;;;;;9.32;7.38;;;10.50;57.00;;;;;;5083812;27;20061;-80
2022/04/17 08:18:24;;;;;;;8.07;6.25;;;10.50;57.40;;;;;;5117504;27;20055;-82
2022/04/17 08:20:50;;;;;;;8.05;6.65;;;10.70;58.00;;;;;;5100359;27;20119;-80
2022/04/17 08:23:16;;;;;;;10.75;7.15;;;10.80;59.10;;;;;;5083561;27;20100;-81
2022/04/17 08:25:43;;;;;;;11.02;6.80;;;10.90;57.00;;;;;;5083985;27;20039;-80
2022/04/17 08:28:08;;;;;;;8.07;6.93;;;11.00;57.70;;;;;;5100612;27;20444;-81
2022/04/17 08:30:35;;;;;;;8.55;6.40;;;11.10;55.40;;;;;;5083571;27;20039;-81
2022/04/17 08:33:06;;;;;;;10.18;7.45;;;11.10;54.70;;;;;;5117230;27;20049;-81
2022/04/17 08:35:32;;;;;;;8.18;5.90;;;11.20;55.50;;;;;;5117101;27;20047;-81
2022/04/17 08:38:00;;;;;;;8.93;6.45;;;11.40;55.80;;;;;;5100062;27;20041;-81
2022/04/17 08:40:26;;;;;;;10.60;7.25;;;11.50;54.40;;;;;;5117021;27;20086;-82
2022/04/17 08:42:53;;;;;;;11.40;6.95;;;11.50;56.10;;;;;;5100103;27;20046;-81
2022/04/17 08:45:19;;;;;;;9.98;6.40;;;11.70;55.60;;;;;;5117244;27;20406;-83
2022/04/17 08:47:45;;;;;;;9.63;7.50;;;11.70;54.90;;;;;;5099837;27;20074;-82
2022/04/17 08:50:16;;;;;;;8.35;6.22;;;11.90;55.20;;;;;;5100047;27;20081;-81
2022/04/17 08:52:45;;;;;;;8.90;6.50;;;12.00;53.00;;;;;;5099907;27;20035;-81
2022/04/17 08:55:11;;;;;;;9.77;6.32;;;12.10;54.70;;;;;;5116947;27;20046;-81
2022/04/17 08:57:37;;;;;;;8.70;6.22;;;12.30;53.70;;;;;;5099828;27;20414;-82
2022/04/17 09:00:08;;;;;;;7.60;6.22;;;12.30;51.70;;;;;;5099801;27;20371;-81
2022/04/17 09:02:38;;;;;;;8.25;5.53;;;12.50;51.80;;;;;;5116919;27;20043;-81
2022/04/17 09:05:08;;;;;;;9.20;6.40;;;12.60;52.60;;;;;;5116571;27;20042;-80
2022/04/17 09:07:49;;;;;;;8.18;5.90;;;12.60;51.60;;;;;;5116710;27;20070;-81
2022/04/17 09:10:33;;;;;;;7.05;5.72;;;12.70;52.20;;;;;;5116594;27;20514;-81
2022/04/17 09:13:00;;;;;;;;;;;12.80;51.50;;;;;;5116934;27;20042;-81
2022/04/17 09:15:30;;;;;;;6.95;5.68;;;12.80;49.50;;;;;;5099568;27;20379;-80
2022/04/17 09:17:55;;;;;;;7.40;5.80;;;12.80;49.60;;;;;;5112690;28;20104;-81
2022/04/17 09:20:24;;;;;;;8.15;6.85;;;13.00;51.90;;;;;;5095935;28;20044;-80
2022/04/17 09:22:52;;;;;;;8.38;6.72;;;13.00;50.60;;;;;;5113135;28;20396;-81
2022/04/17 09:25:18;;;;;;;10.15;7.20;;;13.10;50.60;;;;;;5112880;28;20051;-82
2022/04/17 09:28:01;;;;;;;9.25;7.65;;;13.20;51.00;;;;;;5095731;28;20043;-81
2022/04/17 09:30:34;;;;;;;10.18;6.88;;;13.30;48.10;;;;;;5095652;28;20050;-81
2022/04/17 09:33:10;;;;;;;8.80;7.60;;;13.30;49.00;;;;;;5111475;28;20050;-82
2022/04/17 09:35:36;;;;;;;7.45;5.32;;;13.50;47.40;;;;;;5112550;28;20073;-81
2022/04/17 09:38:07;;;;;;;9.30;6.55;;;13.60;48.20;;;;;;5112594;28;20050;-80
2022/04/17 09:40:33;;;;;;;7.30;5.97;;;13.60;45.20;;;;;;5095507;28;20047;-82
2022/04/17 09:43:16;;;;;;;7.75;6.32;;;13.80;47.70;;;;;;5112764;28;20074;-82
2022/04/17 09:46:09;;;;;;;9.52;6.18;;;13.90;47.90;;;;;;5096251;28;20050;-83
2022/04/17 09:48:38;;;;;;;8.57;6.07;;;14.10;48.30;;;;;;5112470;28;20553;-81
2022/04/17 09:51:19;;;;;;;7.60;5.97;;;14.40;49.20;;;;;;5095656;28;20445;-83
2022/04/17 09:53:59;;;;;;;8.10;6.53;;;14.40;46.10;;;;;;5112617;28;20040;-81
2022/04/17 09:56:37;;;;;;;7.47;6.43;;;14.40;46.20;;;;;;5095511;28;20419;-81
2022/04/17 09:59:19;;;;;;;8.80;6.32;;;14.50;46.70;;;;;;5112232;28;20039;-82
2022/04/17 10:01:46;;;;;;;8.70;5.93;;;14.70;46.00;;;;;;5095517;28;20054;-83
2022/04/17 10:04:16;;;;;;;7.88;5.78;;;14.70;45.60;;;;;;5112166;28;20046;-82
2022/04/17 10:06:43;;;;;;;6.60;5.90;;;14.70;46.00;;;;;;5112404;28;20047;-83
2022/04/17 10:09:11;;;;;;;7.00;6.05;;;14.80;44.90;;;;;;5112329;28;20474;-81
2022/04/17 10:11:40;;;;;;;8.60;6.15;;;14.90;43.70;;;;;;5112330;28;20047;-82
2022/04/17 10:14:07;;;;;;;7.55;5.22;;;15.00;43.40;;;;;;5112396;28;20126;-81
2022/04/17 10:16:40;;;;;;;7.90;5.75;;;14.90;43.80;;;;;;5079161;28;20071;-81
2022/04/17 10:19:10;;;;;;;8.00;5.25;;;15.00;44.70;;;;;;5094887;28;20048;-83
2022/04/17 10:21:36;;;;;;;6.80;5.55;;;15.10;44.30;;;;;;5112143;28;20075;-82
2022/04/17 10:24:04;;;;;;;7.78;5.22;;;15.20;43.90;;;;;;5095147;28;20134;-83
2022/04/17 10:26:37;;;;;;;6.50;5.28;;;15.40;44.30;;;;;;5112464;28;20040;-81
2022/04/17 10:29:06;;;;;;;5.78;4.75;;;15.60;43.20;;;;;;5112205;28;20403;-83
2022/04/17 10:32:13;;;;;;;9.50;5.90;;;15.60;43.80;;;;;;5111948;28;20043;-81
2022/04/17 10:35:12;;;;;;;7.38;5.57;;;15.70;43.80;;;;;;5112207;28;20065;-82
2022/04/17 10:37:44;;;;;;;7.07;5.10;;;16.10;43.30;;;;;;5112045;28;20096;-83
2022/04/17 10:40:10;;;;;;;5.85;4.80;;;16.20;43.50;;;;;;5095202;28;20035;-81
2022/04/17 10:42:53;;;;;;;6.82;4.93;;;16.40;41.60;;;;;;5096010;28;20384;-80
2022/04/17 10:45:18;;;;;;;5.85;5.00;;;16.50;41.50;;;;;;5118591;28;20054;-80
2022/04/17 10:48:10;;;;;;;7.50;4.55;;;16.60;41.90;;;;;;5100854;28;20043;-84
2022/04/17 10:50:43;;;;;;;5.85;4.75;;;16.80;38.00;;;;;;5116028;28;20079;-81
2022/04/17 10:53:28;;;;;;;6.53;5.50;;;16.90;39.90;;;;;;5116200;28;20105;-82
2022/04/17 10:56:08;;;;;;;6.40;4.55;;;16.70;37.40;;;;;;5098929;28;20402;-81
2022/04/17 10:58:37;;;;;;;9.15;6.80;;;16.90;38.10;;;;;;5115944;28;20028;-81
2022/04/17 11:01:04;;;;;;;6.10;5.00;;;17.10;41.10;;;;;;5115488;28;20039;-82
2022/04/17 11:03:34;;;;;;;7.75;5.57;;;17.10;39.70;;;;;;5098677;28;20127;-82
2022/04/17 11:06:24;;;;;;;6.90;6.03;;;17.40;41.50;;;;;;5115495;28;20039;-82
2022/04/17 11:08:57;;;;;;;6.63;5.60;;;17.60;43.20;;;;;;5115837;28;20046;-81
2022/04/17 11:11:36;;;;;;;5.38;4.38;;;17.80;43.30;;;;;;5115669;28;20047;-82
2022/04/17 11:14:07;;;;;;;6.13;5.28;;;17.60;40.60;;;;;;5115485;28;20043;-82
2022/04/17 11:16:48;;;;;;;6.30;5.65;;;17.80;41.60;;;;;;5098181;28;20042;-82
2022/04/17 11:19:16;;;;;;;5.38;4.40;;;17.80;39.40;;;;;;5097977;28;20044;-82
2022/04/17 11:21:44;;;;;;;5.38;4.80;;;17.70;36.50;;;;;;5115198;28;20093;-82
2022/04/17 11:24:10;;;;;;;7.38;4.70;;;18.00;39.20;;;;;;5098145;28;20036;-82
2022/04/17 11:26:54;;;;;;;5.65;4.45;;;18.00;39.90;;;;;;5098423;28;20140;-82
2022/04/17 11:29:43;;;;;;;4.93;4.40;;;18.10;36.30;;;;;;5115267;28;20483;-81
2022/04/17 11:32:17;;;;;;;8.20;5.20;;;18.50;41.00;;;;;;5115003;28;20039;-81
2022/04/17 11:34:52;;;;;;;5.75;4.65;;;18.80;40.20;;;;;;5115214;28;20040;-82
2022/04/17 11:37:29;;;;;;;6.82;5.35;;;19.00;38.20;;;;;;5115212;28;20518;-82
2022/04/17 11:39:59;;;;;;;6.68;4.85;;;18.70;35.40;;;;;;5098366;28;20381;-82
2022/04/17 11:42:28;;;;;;;5.90;4.38;;;18.50;35.90;;;;;;5097897;28;20046;-81
2022/04/17 11:45:00;;;;;;;4.82;4.13;;;18.50;37.00;;;;;;5114829;28;20038;-81
2022/04/17 11:47:26;;;;;;;5.18;4.18;;;18.60;35.70;;;;;;5114767;28;20031;-81
2022/04/17 11:49:52;;;;;;;4.82;4.32;;;18.50;35.40;;;;;;5114568;28;20046;-82
2022/04/17 11:52:19;;;;;;;7.97;4.80;;;18.40;36.00;;;;;;5080807;28;20039;-82
2022/04/17 11:54:46;;;;;;;5.35;4.68;;;18.20;34.60;;;;;;5097237;28;20089;-84
2022/04/17 11:57:13;;;;;;;5.03;4.32;;;18.40;35.50;;;;;;5080716;28;20541;-81
2022/04/17 11:59:54;;;;;;;5.53;4.30;;;18.70;35.90;;;;;;5114498;28;20046;-81
2022/04/17 12:02:22;;;;;;;5.25;4.47;;;18.90;36.40;;;;;;5097806;28;20215;-82
2022/04/17 12:04:50;;;;;;;6.25;4.85;;;18.90;35.10;;;;;;5097728;28;20438;-82
2022/04/17 12:07:23;;;;;;;5.13;4.60;;;18.80;35.30;;;;;;5114563;28;20471;-81
2022/04/17 12:09:50;;;;;;;5.25;4.50;;;18.90;35.10;;;;;;5114253;28;20049;-81
2022/04/17 12:12:18;;;;;;;5.78;5.10;;;19.00;35.60;;;;;;5097264;28;20040;-81
2022/04/17 12:14:46;;;;;;;7.35;5.40;;;19.00;32.50;;;;;;5114117;28;20075;-81
2022/04/17 12:17:14;;;;;;;5.72;4.10;;;18.90;33.40;;;;;;5097102;28;20388;-81
2022/04/17 12:19:51;;;;;;;5.97;3.90;;;19.00;34.60;;;;;;5097255;28;20067;-82
2022/04/17 12:22:18;;;;;;;4.95;4.40;;;19.10;33.70;;;;;;5114027;28;20445;-82
2022/04/17 12:24:45;;;;;;;5.35;4.18;;;19.10;32.20;;;;;;5114230;28;20392;-82
2022/04/17 12:27:13;;;;;;;5.57;4.22;;;19.40;33.80;;;;;;5097217;28;20391;-80
2022/04/17 12:29:41;;;;;;;5.82;4.18;;;19.70;35.30;;;;;;5096792;28;20035;-82
2022/04/17 12:32:15;;;;;;;4.60;4.10;;;20.00;34.90;;;;;;5113764;28;20047;-82
2022/04/17 12:34:45;;;;;;;5.78;4.78;;;20.20;34.50;;;;;;5096903;28;20052;-81
2022/04/17 12:37:31;;;;;;;5.72;5.07;;;20.10;33.20;;;;;;5113728;28;20035;-83
2022/04/17 12:40:17;;;;;;;4.65;4.13;;;20.30;34.10;;;;;;5097373;28;20036;-81
2022/04/17 12:42:43;;;;;;;5.60;4.95;;;20.50;34.60;;;;;;5113753;28;20035;-82
2022/04/17 12:45:10;;;;;;;6.50;4.75;;;20.50;33.10;;;;;;5097213;28;20091;-82
2022/04/17 12:47:38;;;;;;;5.35;4.55;;;20.90;34.60;;;;;;5113958;28;20031;-84
2022/04/17 12:50:11;;;;;;;4.85;4.20;;;20.90;32.00;;;;;;5113430;28;20039;-81
2022/04/17 12:52:37;;;;;;;5.75;4.88;;;20.80;33.30;;;;;;5113490;28;20067;-82
2022/04/17 12:55:10;;;;;;;5.65;5.05;;;20.20;31.50;;;;;;5079570;28;20056;-81
2022/04/17 12:57:37;;;;;;;5.50;4.57;;;20.30;31.10;;;;;;5096742;28;20035;-82
2022/04/17 13:00:15;;;;;;;5.38;4.10;;;20.50;32.80;;;;;;5113517;28;20043;-82
2022/04/17 13:02:42;;;;;;;5.25;4.75;;;20.70;31.10;;;;;;5096543;28;20040;-82
2022/04/17 13:05:08;;;;;;;6.05;5.38;;;20.90;33.80;;;;;;5113364;28;20044;-82
2022/04/17 13:07:36;;;;;;;6.90;4.72;;;21.10;33.10;;;;;;5095653;28;20383;-82
2022/04/17 13:10:04;;;;;;;6.22;4.40;;;21.30;32.80;;;;;;5113292;28;20540;-82
2022/04/17 13:12:41;;;;;;;5.53;4.10;;;21.20;31.80;;;;;;5096011;28;20035;-82
2022/04/17 13:15:08;;;;;;;5.30;4.60;;;21.10;31.60;;;;;;5096195;28;20391;-83
2022/04/17 13:17:48;;;;;;;6.00;4.40;;;21.00;32.70;;;;;;5096476;27;20168;-81